sensor_id;sensor_type;location;lat;lon;timestamp;P1;durP1;ratioP1;P2;durP2;ratioP2
3074;SDS011;1548;51.716;8.748;2022-11-15T00:00:08;202.73;;;141.63;;
3074;SDS011;1548;51.716;8.748;2022-11-15T00:02:34;325.27;;;147.93;;
3074;SDS011;1548;51.716;8.748;2022-11-15T00:05:00;393.47;;;150.07;;
3074;SDS011;1548;51.716;8.748;2022-11-15T00:07:26;344.87;;;124.10;;
3074;SDS011;1548;51.716;8.748;2022-11-15T00:09:51;236.27;;;148.10;;
3074;SDS011;1548;51.716;8.748;2022-11-15T00:12:17;221.10;;;145.97;;
3074;SDS011;1548;51.716;8.748;2022-11-15T00:14:42;230.37;;;145.17;;
3074;SDS011;1548;51.716;8.748;2022-11-15T00:17:08;238.30;;;142.07;;
3074;SDS011;1548;51.716;8.748;2022-11-15T00:19:34;222.10;;;144.90;;
3074;SDS011;1548;51.716;8.748;2022-11-15T00:21:59;220.10;;;147.83;;
3074;SDS011;1548;51.716;8.748;2022-11-15T00:24:25;194.33;;;140.23;;
3074;SDS011;1548;51.716;8.748;2022-11-15T00:26:51;188.43;;;145.27;;
3074;SDS011;1548;51.716;8.748;2022-11-15T00:29:16;258.17;;;143.03;;
3074;SDS011;1548;51.716;8.748;2022-11-15T00:31:42;263.77;;;146.43;;
3074;SDS011;1548;51.716;8.748;2022-11-15T00:34:08;342.30;;;157.17;;
3074;SDS011;1548;51.716;8.748;2022-11-15T00:36:35;334.07;;;170.93;;
3074;SDS011;1548;51.716;8.748;2022-11-15T00:39:02;343.53;;;167.73;;
3074;SDS011;1548;51.716;8.748;2022-11-15T00:41:30;293.97;;;146.37;;
3074;SDS011;1548;51.716;8.748;2022-11-15T00:43:55;350.77;;;174.13;;
3074;SDS011;1548;51.716;8.748;2022-11-15T00:46:21;334.77;;;168.73;;
3074;SDS011;1548;51.716;8.748;2022-11-15T00:48:46;311.67;;;160.63;;
3074;SDS011;1548;51.716;8.748;2022-11-15T00:51:12;280.87;;;159.47;;
3074;SDS011;1548;51.716;8.748;2022-11-15T00:53:38;332.47;;;166.10;;
3074;SDS011;1548;51.716;8.748;2022-11-15T00:56:03;325.53;;;169.30;;
3074;SDS011;1548;51.716;8.748;2022-11-15T00:58:29;275.47;;;175.90;;
3074;SDS011;1548;51.716;8.748;2022-11-15T01:00:55;260.23;;;162.63;;
3074;SDS011;1548;51.716;8.748;2022-11-15T01:03:20;249.90;;;151.00;;
3074;SDS011;1548;51.716;8.748;2022-11-15T01:05:46;175.23;;;147.17;;
3074;SDS011;1548;51.716;8.748;2022-11-15T01:08:15;155.20;;;143.97;;
3074;SDS011;1548;51.716;8.748;2022-11-15T01:10:41;147.37;;;140.30;;
3074;SDS011;1548;51.716;8.748;2022-11-15T01:13:07;155.10;;;137.67;;
3074;SDS011;1548;51.716;8.748;2022-11-15T01:15:33;257.33;;;148.83;;
3074;SDS011;1548;51.716;8.748;2022-11-15T01:17:58;280.70;;;149.80;;
3074;SDS011;1548;51.716;8.748;2022-11-15T01:20:24;251.27;;;151.17;;
3074;SDS011;1548;51.716;8.748;2022-11-15T01:22:50;255.40;;;147.63;;
3074;SDS011;1548;51.716;8.748;2022-11-15T01:25:15;261.83;;;143.87;;
3074;SDS011;1548;51.716;8.748;2022-11-15T01:27:41;269.70;;;143.73;;
3074;SDS011;1548;51.716;8.748;2022-11-15T01:30:06;232.47;;;142.57;;
3074;SDS011;1548;51.716;8.748;2022-11-15T01:32:33;245.20;;;162.30;;
3074;SDS011;1548;51.716;8.748;2022-11-15T01:34:59;300.03;;;171.40;;
3074;SDS011;1548;51.716;8.748;2022-11-15T01:37:24;266.90;;;173.20;;
3074;SDS011;1548;51.716;8.748;2022-11-15T01:39:50;207.47;;;142.60;;
3074;SDS011;1548;51.716;8.748;2022-11-15T01:42:15;235.53;;;151.40;;
3074;SDS011;1548;51.716;8.748;2022-11-15T01:44:52;192.57;;;144.33;;
3074;SDS011;1548;51.716;8.748;2022-11-15T01:47:23;223.83;;;144.10;;
3074;SDS011;1548;51.716;8.748;2022-11-15T01:49:55;234.53;;;148.97;;
3074;SDS011;1548;51.716;8.748;2022-11-15T01:52:26;223.77;;;146.93;;
3074;SDS011;1548;51.716;8.748;2022-11-15T01:55:02;233.67;;;147.50;;
3074;SDS011;1548;51.716;8.748;2022-11-15T01:57:32;196.17;;;141.50;;
3074;SDS011;1548;51.716;8.748;2022-11-15T01:59:59;247.83;;;145.27;;
3074;SDS011;1548;51.716;8.748;2022-11-15T02:02:25;240.57;;;140.70;;
3074;SDS011;1548;51.716;8.748;2022-11-15T02:04:51;247.60;;;147.23;;
3074;SDS011;1548;51.716;8.748;2022-11-15T02:07:17;256.73;;;149.90;;
3074;SDS011;1548;51.716;8.748;2022-11-15T02:09:46;270.87;;;139.80;;
3074;SDS011;1548;51.716;8.748;2022-11-15T02:12:13;277.03;;;146.33;;
3074;SDS011;1548;51.716;8.748;2022-11-15T02:14:43;229.97;;;145.77;;
3074;SDS011;1548;51.716;8.748;2022-11-15T02:17:19;187.23;;;146.13;;
3074;SDS011;1548;51.716;8.748;2022-11-15T02:31:28;277.07;;;146.63;;
3074;SDS011;1548;51.716;8.748;2022-11-15T02:37:07;278.43;;;147.10;;
3074;SDS011;1548;51.716;8.748;2022-11-15T02:39:59;299.40;;;142.03;;
3074;SDS011;1548;51.716;8.748;2022-11-15T02:42:49;269.80;;;140.13;;
3074;SDS011;1548;51.716;8.748;2022-11-15T02:45:39;252.90;;;143.77;;
3074;SDS011;1548;51.716;8.748;2022-11-15T02:48:11;288.87;;;151.00;;
3074;SDS011;1548;51.716;8.748;2022-11-15T02:50:37;269.43;;;143.90;;
3074;SDS011;1548;51.716;8.748;2022-11-15T02:53:03;268.50;;;143.47;;
3074;SDS011;1548;51.716;8.748;2022-11-15T02:55:33;271.43;;;141.10;;
3074;SDS011;1548;51.716;8.748;2022-11-15T02:58:18;277.73;;;144.63;;
3074;SDS011;1548;51.716;8.748;2022-11-15T03:01:01;274.73;;;151.87;;
3074;SDS011;1548;51.716;8.748;2022-11-15T03:03:41;275.67;;;149.13;;
3074;SDS011;1548;51.716;8.748;2022-11-15T03:11:54;251.40;;;146.37;;
3074;SDS011;1548;51.716;8.748;2022-11-15T03:14:25;287.83;;;143.53;;
3074;SDS011;1548;51.716;8.748;2022-11-15T03:19:47;332.30;;;146.00;;
3074;SDS011;1548;51.716;8.748;2022-11-15T03:22:17;293.97;;;145.87;;
3074;SDS011;1548;51.716;8.748;2022-11-15T03:24:46;296.33;;;143.93;;
3074;SDS011;1548;51.716;8.748;2022-11-15T03:27:17;271.43;;;147.27;;
3074;SDS011;1548;51.716;8.748;2022-11-15T03:29:49;279.13;;;146.10;;
3074;SDS011;1548;51.716;8.748;2022-11-15T03:32:19;270.83;;;150.27;;
3074;SDS011;1548;51.716;8.748;2022-11-15T03:34:58;250.27;;;146.50;;
3074;SDS011;1548;51.716;8.748;2022-11-15T03:37:35;293.10;;;158.20;;
3074;SDS011;1548;51.716;8.748;2022-11-15T03:40:15;259.00;;;148.50;;
3074;SDS011;1548;51.716;8.748;2022-11-15T03:42:43;235.13;;;153.90;;
3074;SDS011;1548;51.716;8.748;2022-11-15T03:45:22;264.23;;;149.30;;
3074;SDS011;1548;51.716;8.748;2022-11-15T03:47:57;305.70;;;146.70;;
3074;SDS011;1548;51.716;8.748;2022-11-15T03:50:26;205.73;;;140.70;;
3074;SDS011;1548;51.716;8.748;2022-11-15T03:52:53;292.87;;;148.33;;
3074;SDS011;1548;51.716;8.748;2022-11-15T03:55:21;335.07;;;156.03;;
3074;SDS011;1548;51.716;8.748;2022-11-15T03:57:50;306.27;;;142.83;;
3074;SDS011;1548;51.716;8.748;2022-11-15T04:00:19;241.47;;;142.57;;
3074;SDS011;1548;51.716;8.748;2022-11-15T04:02:45;249.90;;;144.57;;
3074;SDS011;1548;51.716;8.748;2022-11-15T04:05:10;282.37;;;145.83;;
3074;SDS011;1548;51.716;8.748;2022-11-15T04:07:36;313.33;;;145.23;;
3074;SDS011;1548;51.716;8.748;2022-11-15T04:10:02;299.43;;;154.23;;
3074;SDS011;1548;51.716;8.748;2022-11-15T04:12:31;314.93;;;152.63;;
3074;SDS011;1548;51.716;8.748;2022-11-15T04:15:03;278.93;;;142.73;;
3074;SDS011;1548;51.716;8.748;2022-11-15T04:20:12;289.30;;;148.20;;
3074;SDS011;1548;51.716;8.748;2022-11-15T04:23:02;277.43;;;144.63;;
3074;SDS011;1548;51.716;8.748;2022-11-15T04:25:53;245.83;;;147.33;;
3074;SDS011;1548;51.716;8.748;2022-11-15T04:28:19;288.50;;;149.30;;
3074;SDS011;1548;51.716;8.748;2022-11-15T04:30:45;235.07;;;143.97;;
3074;SDS011;1548;51.716;8.748;2022-11-15T04:33:11;210.67;;;144.17;;
3074;SDS011;1548;51.716;8.748;2022-11-15T04:35:37;266.13;;;140.10;;
3074;SDS011;1548;51.716;8.748;2022-11-15T04:38:03;296.03;;;144.43;;
3074;SDS011;1548;51.716;8.748;2022-11-15T04:40:31;305.30;;;149.40;;
3074;SDS011;1548;51.716;8.748;2022-11-15T04:42:56;315.50;;;147.33;;
3074;SDS011;1548;51.716;8.748;2022-11-15T04:45:22;292.00;;;144.87;;
3074;SDS011;1548;51.716;8.748;2022-11-15T04:47:48;289.30;;;144.90;;
3074;SDS011;1548;51.716;8.748;2022-11-15T04:50:14;300.30;;;147.13;;
3074;SDS011;1548;51.716;8.748;2022-11-15T04:52:41;287.73;;;145.63;;
3074;SDS011;1548;51.716;8.748;2022-11-15T04:55:11;293.57;;;148.60;;
3074;SDS011;1548;51.716;8.748;2022-11-15T04:57:37;278.03;;;146.03;;
3074;SDS011;1548;51.716;8.748;2022-11-15T05:00:06;259.87;;;147.10;;
3074;SDS011;1548;51.716;8.748;2022-11-15T05:02:33;305.93;;;143.43;;
3074;SDS011;1548;51.716;8.748;2022-11-15T05:05:17;332.57;;;151.27;;
3074;SDS011;1548;51.716;8.748;2022-11-15T05:07:43;300.77;;;141.70;;
3074;SDS011;1548;51.716;8.748;2022-11-15T05:10:09;293.83;;;143.93;;
3074;SDS011;1548;51.716;8.748;2022-11-15T05:12:34;308.47;;;145.60;;
3074;SDS011;1548;51.716;8.748;2022-11-15T05:15:00;334.27;;;145.23;;
3074;SDS011;1548;51.716;8.748;2022-11-15T05:17:26;360.20;;;147.30;;
3074;SDS011;1548;51.716;8.748;2022-11-15T05:19:51;343.03;;;146.40;;
3074;SDS011;1548;51.716;8.748;2022-11-15T05:22:17;343.57;;;149.50;;
3074;SDS011;1548;51.716;8.748;2022-11-15T05:24:43;326.40;;;144.80;;
3074;SDS011;1548;51.716;8.748;2022-11-15T05:27:09;315.33;;;145.73;;
3074;SDS011;1548;51.716;8.748;2022-11-15T05:29:34;308.43;;;142.33;;
3074;SDS011;1548;51.716;8.748;2022-11-15T05:32:00;326.33;;;146.03;;
3074;SDS011;1548;51.716;8.748;2022-11-15T05:34:26;323.67;;;145.30;;
3074;SDS011;1548;51.716;8.748;2022-11-15T05:36:52;335.83;;;150.63;;
3074;SDS011;1548;51.716;8.748;2022-11-15T05:39:18;360.57;;;154.77;;
3074;SDS011;1548;51.716;8.748;2022-11-15T05:41:48;348.37;;;149.63;;
3074;SDS011;1548;51.716;8.748;2022-11-15T05:44:20;355.33;;;158.20;;
3074;SDS011;1548;51.716;8.748;2022-11-15T05:46:48;336.53;;;147.23;;
3074;SDS011;1548;51.716;8.748;2022-11-15T05:49:16;342.23;;;148.80;;
3074;SDS011;1548;51.716;8.748;2022-11-15T05:51:44;345.80;;;147.20;;
3074;SDS011;1548;51.716;8.748;2022-11-15T05:54:13;356.30;;;150.40;;
3074;SDS011;1548;51.716;8.748;2022-11-15T05:56:40;351.17;;;151.73;;
3074;SDS011;1548;51.716;8.748;2022-11-15T05:59:06;360.67;;;150.70;;
3074;SDS011;1548;51.716;8.748;2022-11-15T06:01:33;350.87;;;149.23;;
3074;SDS011;1548;51.716;8.748;2022-11-15T06:03:58;373.63;;;152.30;;
3074;SDS011;1548;51.716;8.748;2022-11-15T06:06:24;375.00;;;148.47;;
3074;SDS011;1548;51.716;8.748;2022-11-15T06:08:49;375.37;;;148.20;;
3074;SDS011;1548;51.716;8.748;2022-11-15T06:11:15;369.63;;;148.40;;
3074;SDS011;1548;51.716;8.748;2022-11-15T06:13:41;377.57;;;154.07;;
3074;SDS011;1548;51.716;8.748;2022-11-15T06:16:06;354.10;;;143.03;;
3074;SDS011;1548;51.716;8.748;2022-11-15T06:18:35;351.37;;;146.53;;
3074;SDS011;1548;51.716;8.748;2022-11-15T06:21:01;346.57;;;150.10;;
3074;SDS011;1548;51.716;8.748;2022-11-15T06:23:27;354.60;;;146.03;;
3074;SDS011;1548;51.716;8.748;2022-11-15T06:25:57;354.10;;;146.67;;
3074;SDS011;1548;51.716;8.748;2022-11-15T06:28:29;362.43;;;148.57;;
3074;SDS011;1548;51.716;8.748;2022-11-15T06:31:01;338.07;;;146.57;;
3074;SDS011;1548;51.716;8.748;2022-11-15T06:33:28;307.90;;;143.37;;
3074;SDS011;1548;51.716;8.748;2022-11-15T06:35:53;331.57;;;155.10;;
3074;SDS011;1548;51.716;8.748;2022-11-15T06:38:19;329.40;;;152.87;;
3074;SDS011;1548;51.716;8.748;2022-11-15T06:40:44;332.30;;;152.17;;
3074;SDS011;1548;51.716;8.748;2022-11-15T06:43:10;325.83;;;153.27;;
3074;SDS011;1548;51.716;8.748;2022-11-15T06:45:35;311.83;;;144.50;;
3074;SDS011;1548;51.716;8.748;2022-11-15T06:48:01;321.60;;;147.60;;
3074;SDS011;1548;51.716;8.748;2022-11-15T06:50:27;375.27;;;184.07;;
3074;SDS011;1548;51.716;8.748;2022-11-15T06:52:52;323.80;;;146.57;;
3074;SDS011;1548;51.716;8.748;2022-11-15T06:55:19;321.17;;;146.03;;
3074;SDS011;1548;51.716;8.748;2022-11-15T06:57:48;312.17;;;151.77;;
3074;SDS011;1548;51.716;8.748;2022-11-15T07:00:15;304.20;;;148.37;;
3074;SDS011;1548;51.716;8.748;2022-11-15T07:02:42;307.30;;;149.77;;
3074;SDS011;1548;51.716;8.748;2022-11-15T07:05:08;302.20;;;148.17;;
3074;SDS011;1548;51.716;8.748;2022-11-15T07:07:33;339.87;;;163.03;;
3074;SDS011;1548;51.716;8.748;2022-11-15T07:09:59;329.27;;;145.13;;
3074;SDS011;1548;51.716;8.748;2022-11-15T07:12:24;346.93;;;158.53;;
3074;SDS011;1548;51.716;8.748;2022-11-15T07:14:50;336.27;;;143.87;;
3074;SDS011;1548;51.716;8.748;2022-11-15T07:17:15;329.50;;;143.33;;
3074;SDS011;1548;51.716;8.748;2022-11-15T07:19:41;344.33;;;154.07;;
3074;SDS011;1548;51.716;8.748;2022-11-15T07:22:07;311.67;;;144.87;;
3074;SDS011;1548;51.716;8.748;2022-11-15T07:24:32;314.60;;;149.60;;
3074;SDS011;1548;51.716;8.748;2022-11-15T07:26:58;318.20;;;145.43;;
3074;SDS011;1548;51.716;8.748;2022-11-15T07:29:23;302.80;;;144.57;;
3074;SDS011;1548;51.716;8.748;2022-11-15T07:31:49;318.20;;;148.03;;
3074;SDS011;1548;51.716;8.748;2022-11-15T07:34:15;332.10;;;158.07;;
3074;SDS011;1548;51.716;8.748;2022-11-15T07:36:41;305.47;;;145.73;;
3074;SDS011;1548;51.716;8.748;2022-11-15T07:39:06;313.10;;;149.27;;
3074;SDS011;1548;51.716;8.748;2022-11-15T07:41:32;291.43;;;147.03;;
3074;SDS011;1548;51.716;8.748;2022-11-15T07:43:58;264.90;;;141.57;;
3074;SDS011;1548;51.716;8.748;2022-11-15T07:46:23;300.90;;;145.93;;
3074;SDS011;1548;51.716;8.748;2022-11-15T07:48:49;300.20;;;143.40;;
3074;SDS011;1548;51.716;8.748;2022-11-15T07:51:15;305.13;;;144.43;;
3074;SDS011;1548;51.716;8.748;2022-11-15T07:53:42;320.17;;;148.73;;
3074;SDS011;1548;51.716;8.748;2022-11-15T07:56:08;309.53;;;146.87;;
3074;SDS011;1548;51.716;8.748;2022-11-15T07:58:34;327.67;;;154.93;;
3074;SDS011;1548;51.716;8.748;2022-11-15T08:01:04;314.77;;;144.70;;
3074;SDS011;1548;51.716;8.748;2022-11-15T08:03:30;325.73;;;145.13;;
3074;SDS011;1548;51.716;8.748;2022-11-15T08:05:55;317.43;;;140.47;;
3074;SDS011;1548;51.716;8.748;2022-11-15T08:08:21;313.80;;;144.97;;
3074;SDS011;1548;51.716;8.748;2022-11-15T08:10:47;310.60;;;144.07;;
3074;SDS011;1548;51.716;8.748;2022-11-15T08:13:12;331.67;;;144.23;;
3074;SDS011;1548;51.716;8.748;2022-11-15T08:15:38;320.50;;;150.13;;
3074;SDS011;1548;51.716;8.748;2022-11-15T08:18:06;324.70;;;145.50;;
3074;SDS011;1548;51.716;8.748;2022-11-15T08:20:37;320.40;;;142.80;;
3074;SDS011;1548;51.716;8.748;2022-11-15T08:23:03;312.57;;;147.43;;
3074;SDS011;1548;51.716;8.748;2022-11-15T08:25:31;315.20;;;149.70;;
3074;SDS011;1548;51.716;8.748;2022-11-15T08:27:59;328.47;;;147.53;;
3074;SDS011;1548;51.716;8.748;2022-11-15T08:30:26;339.57;;;153.47;;
3074;SDS011;1548;51.716;8.748;2022-11-15T08:32:52;330.10;;;146.47;;
3074;SDS011;1548;51.716;8.748;2022-11-15T08:35:19;325.77;;;145.47;;
3074;SDS011;1548;51.716;8.748;2022-11-15T08:37:45;326.93;;;147.67;;
3074;SDS011;1548;51.716;8.748;2022-11-15T08:40:12;332.23;;;149.53;;
3074;SDS011;1548;51.716;8.748;2022-11-15T08:42:38;317.27;;;143.90;;
3074;SDS011;1548;51.716;8.748;2022-11-15T08:45:04;321.67;;;145.03;;
3074;SDS011;1548;51.716;8.748;2022-11-15T08:47:31;321.53;;;150.67;;
3074;SDS011;1548;51.716;8.748;2022-11-15T08:49:57;314.97;;;147.17;;
3074;SDS011;1548;51.716;8.748;2022-11-15T08:52:22;318.03;;;155.13;;
3074;SDS011;1548;51.716;8.748;2022-11-15T08:54:48;313.53;;;147.53;;
3074;SDS011;1548;51.716;8.748;2022-11-15T08:57:14;294.00;;;140.80;;
3074;SDS011;1548;51.716;8.748;2022-11-15T08:59:39;278.10;;;142.73;;
3074;SDS011;1548;51.716;8.748;2022-11-15T09:02:05;297.17;;;144.47;;
3074;SDS011;1548;51.716;8.748;2022-11-15T09:04:31;323.30;;;146.77;;
3074;SDS011;1548;51.716;8.748;2022-11-15T09:06:56;329.43;;;141.33;;
3074;SDS011;1548;51.716;8.748;2022-11-15T09:09:22;326.53;;;141.23;;
3074;SDS011;1548;51.716;8.748;2022-11-15T09:11:48;327.37;;;143.53;;
3074;SDS011;1548;51.716;8.748;2022-11-15T09:14:15;323.30;;;136.27;;
3074;SDS011;1548;51.716;8.748;2022-11-15T09:16:41;339.87;;;141.70;;
3074;SDS011;1548;51.716;8.748;2022-11-15T09:19:06;345.20;;;141.17;;
3074;SDS011;1548;51.716;8.748;2022-11-15T09:21:33;343.80;;;143.57;;
3074;SDS011;1548;51.716;8.748;2022-11-15T09:23:59;343.07;;;141.57;;
3074;SDS011;1548;51.716;8.748;2022-11-15T09:26:24;331.87;;;141.20;;
3074;SDS011;1548;51.716;8.748;2022-11-15T09:28:50;310.57;;;138.70;;
3074;SDS011;1548;51.716;8.748;2022-11-15T09:31:16;312.93;;;134.63;;
3074;SDS011;1548;51.716;8.748;2022-11-15T09:33:44;332.90;;;138.97;;
3074;SDS011;1548;51.716;8.748;2022-11-15T09:36:10;332.57;;;137.13;;
3074;SDS011;1548;51.716;8.748;2022-11-15T09:38:37;326.70;;;138.60;;
3074;SDS011;1548;51.716;8.748;2022-11-15T09:49:08;342.83;;;165.23;;
3074;SDS011;1548;51.716;8.748;2022-11-15T09:51:37;364.87;;;169.20;;
3074;SDS011;1548;51.716;8.748;2022-11-15T09:57:16;408.00;;;165.97;;
3074;SDS011;1548;51.716;8.748;2022-11-15T10:05:27;390.67;;;188.97;;
3074;SDS011;1548;51.716;8.748;2022-11-15T10:08:05;392.13;;;162.07;;
3074;SDS011;1548;51.716;8.748;2022-11-15T10:10:39;394.30;;;169.50;;
3074;SDS011;1548;51.716;8.748;2022-11-15T10:13:52;390.70;;;166.30;;
3074;SDS011;1548;51.716;8.748;2022-11-15T10:16:30;390.77;;;165.77;;
3074;SDS011;1548;51.716;8.748;2022-11-15T10:24:27;365.43;;;165.53;;
3074;SDS011;1548;51.716;8.748;2022-11-15T10:26:56;350.30;;;162.83;;
3074;SDS011;1548;51.716;8.748;2022-11-15T10:29:23;354.17;;;163.33;;
3074;SDS011;1548;51.716;8.748;2022-11-15T10:31:50;356.83;;;166.13;;
3074;SDS011;1548;51.716;8.748;2022-11-15T10:34:22;362.67;;;174.67;;
3074;SDS011;1548;51.716;8.748;2022-11-15T10:36:56;355.57;;;161.77;;
3074;SDS011;1548;51.716;8.748;2022-11-15T10:39:24;348.27;;;160.43;;
3074;SDS011;1548;51.716;8.748;2022-11-15T10:41:50;356.33;;;163.97;;
3074;SDS011;1548;51.716;8.748;2022-11-15T10:46:42;348.83;;;166.80;;
3074;SDS011;1548;51.716;8.748;2022-11-15T10:49:15;345.03;;;169.43;;
3074;SDS011;1548;51.716;8.748;2022-11-15T10:51:47;335.13;;;165.00;;
3074;SDS011;1548;51.716;8.748;2022-11-15T10:54:17;355.70;;;164.20;;
3074;SDS011;1548;51.716;8.748;2022-11-15T10:56:54;362.30;;;164.93;;
3074;SDS011;1548;51.716;8.748;2022-11-15T10:59:31;353.67;;;167.20;;
3074;SDS011;1548;51.716;8.748;2022-11-15T11:02:00;345.07;;;162.57;;
3074;SDS011;1548;51.716;8.748;2022-11-15T11:04:26;362.57;;;166.17;;
3074;SDS011;1548;51.716;8.748;2022-11-15T11:11:58;366.20;;;163.17;;
3074;SDS011;1548;51.716;8.748;2022-11-15T11:14:29;362.80;;;162.57;;
3074;SDS011;1548;51.716;8.748;2022-11-15T11:20:05;345.40;;;165.13;;
3074;SDS011;1548;51.716;8.748;2022-11-15T11:22:58;341.17;;;166.00;;
3074;SDS011;1548;51.716;8.748;2022-11-15T11:25:38;351.40;;;167.10;;
3074;SDS011;1548;51.716;8.748;2022-11-15T11:33:33;294.60;;;136.23;;
3074;SDS011;1548;51.716;8.748;2022-11-15T11:36:11;319.20;;;168.27;;
3074;SDS011;1548;51.716;8.748;2022-11-15T11:46:47;299.33;;;169.13;;
3074;SDS011;1548;51.716;8.748;2022-11-15T11:52:41;326.07;;;167.97;;
3074;SDS011;1548;51.716;8.748;2022-11-15T11:55:18;327.30;;;169.77;;
3074;SDS011;1548;51.716;8.748;2022-11-15T12:00:23;324.07;;;169.07;;
3074;SDS011;1548;51.716;8.748;2022-11-15T12:05:44;365.50;;;168.53;;
3074;SDS011;1548;51.716;8.748;2022-11-15T12:10:47;380.20;;;170.20;;
3074;SDS011;1548;51.716;8.748;2022-11-15T12:13:20;398.20;;;165.20;;
3074;SDS011;1548;51.716;8.748;2022-11-15T12:18:24;398.13;;;168.43;;
3074;SDS011;1548;51.716;8.748;2022-11-15T12:20:52;375.87;;;168.77;;
3074;SDS011;1548;51.716;8.748;2022-11-15T12:23:29;387.70;;;170.23;;
3074;SDS011;1548;51.716;8.748;2022-11-15T12:28:51;366.07;;;174.97;;
3074;SDS011;1548;51.716;8.748;2022-11-15T12:31:32;375.47;;;175.33;;
3074;SDS011;1548;51.716;8.748;2022-11-15T12:36:50;348.47;;;165.23;;
3074;SDS011;1548;51.716;8.748;2022-11-15T12:39:17;352.90;;;168.43;;
3074;SDS011;1548;51.716;8.748;2022-11-15T12:41:44;357.33;;;162.60;;
3074;SDS011;1548;51.716;8.748;2022-11-15T13:02:17;334.73;;;163.57;;
3074;SDS011;1548;51.716;8.748;2022-11-15T13:17:48;321.03;;;166.97;;
3074;SDS011;1548;51.716;8.748;2022-11-15T13:28:10;328.57;;;172.27;;
3074;SDS011;1548;51.716;8.748;2022-11-15T13:30:40;303.20;;;168.47;;
3074;SDS011;1548;51.716;8.748;2022-11-15T13:33:15;316.67;;;166.10;;
3074;SDS011;1548;51.716;8.748;2022-11-15T13:36:03;314.07;;;161.20;;
3074;SDS011;1548;51.716;8.748;2022-11-15T13:38:56;276.57;;;163.63;;
3074;SDS011;1548;51.716;8.748;2022-11-15T13:41:48;268.37;;;157.80;;
3074;SDS011;1548;51.716;8.748;2022-11-15T13:44:23;324.23;;;165.60;;
3074;SDS011;1548;51.716;8.748;2022-11-15T13:47:07;365.23;;;175.90;;
3074;SDS011;1548;51.716;8.748;2022-11-15T13:49:38;359.27;;;165.27;;
3074;SDS011;1548;51.716;8.748;2022-11-15T13:52:05;348.30;;;172.67;;
3074;SDS011;1548;51.716;8.748;2022-11-15T13:54:46;353.90;;;168.33;;
3074;SDS011;1548;51.716;8.748;2022-11-15T14:00:05;335.03;;;166.37;;
3074;SDS011;1548;51.716;8.748;2022-11-15T14:02:47;354.00;;;173.87;;
3074;SDS011;1548;51.716;8.748;2022-11-15T14:05:17;320.47;;;163.57;;
3074;SDS011;1548;51.716;8.748;2022-11-15T14:08:04;425.43;;;167.47;;
3074;SDS011;1548;51.716;8.748;2022-11-15T14:10:40;340.37;;;181.67;;
3074;SDS011;1548;51.716;8.748;2022-11-15T14:13:10;303.33;;;168.40;;
3074;SDS011;1548;51.716;8.748;2022-11-15T14:15:52;326.73;;;168.10;;
3074;SDS011;1548;51.716;8.748;2022-11-15T14:21:08;366.07;;;168.83;;
3074;SDS011;1548;51.716;8.748;2022-11-15T14:23:34;360.40;;;166.83;;
3074;SDS011;1548;51.716;8.748;2022-11-15T14:25:59;347.13;;;167.07;;
3074;SDS011;1548;51.716;8.748;2022-11-15T14:30:51;355.17;;;169.23;;
3074;SDS011;1548;51.716;8.748;2022-11-15T14:33:24;294.47;;;136.77;;
3074;SDS011;1548;51.716;8.748;2022-11-15T14:36:04;308.83;;;171.77;;
3074;SDS011;1548;51.716;8.748;2022-11-15T14:38:44;337.40;;;164.07;;
3074;SDS011;1548;51.716;8.748;2022-11-15T14:41:17;309.43;;;160.97;;
3074;SDS011;1548;51.716;8.748;2022-11-15T14:43:47;306.67;;;164.27;;
3074;SDS011;1548;51.716;8.748;2022-11-15T14:46:14;334.73;;;170.03;;
3074;SDS011;1548;51.716;8.748;2022-11-15T14:48:39;319.53;;;161.83;;
3074;SDS011;1548;51.716;8.748;2022-11-15T14:51:10;322.07;;;173.00;;
3074;SDS011;1548;51.716;8.748;2022-11-15T14:53:37;319.27;;;163.03;;
3074;SDS011;1548;51.716;8.748;2022-11-15T14:56:03;309.87;;;159.53;;
3074;SDS011;1548;51.716;8.748;2022-11-15T14:58:29;320.57;;;172.23;;
3074;SDS011;1548;51.716;8.748;2022-11-15T15:00:54;308.37;;;160.77;;
3074;SDS011;1548;51.716;8.748;2022-11-15T15:03:20;321.27;;;160.57;;
3074;SDS011;1548;51.716;8.748;2022-11-15T15:05:46;323.73;;;162.83;;
3074;SDS011;1548;51.716;8.748;2022-11-15T15:08:12;300.67;;;166.70;;
3074;SDS011;1548;51.716;8.748;2022-11-15T15:10:47;287.37;;;161.50;;
3074;SDS011;1548;51.716;8.748;2022-11-15T15:13:17;288.47;;;165.73;;
3074;SDS011;1548;51.716;8.748;2022-11-15T15:15:45;288.67;;;179.67;;
3074;SDS011;1548;51.716;8.748;2022-11-15T15:18:11;266.07;;;153.97;;
3074;SDS011;1548;51.716;8.748;2022-11-15T15:20:38;309.70;;;170.37;;
3074;SDS011;1548;51.716;8.748;2022-11-15T15:23:05;272.93;;;166.43;;
3074;SDS011;1548;51.716;8.748;2022-11-15T15:25:34;293.87;;;160.77;;
3074;SDS011;1548;51.716;8.748;2022-11-15T15:28:00;256.33;;;134.67;;
3074;SDS011;1548;51.716;8.748;2022-11-15T15:30:27;285.13;;;160.13;;
3074;SDS011;1548;51.716;8.748;2022-11-15T15:32:54;218.10;;;163.73;;
3074;SDS011;1548;51.716;8.748;2022-11-15T15:35:20;285.37;;;161.80;;
3074;SDS011;1548;51.716;8.748;2022-11-15T15:37:46;295.93;;;162.90;;
3074;SDS011;1548;51.716;8.748;2022-11-15T15:40:17;228.40;;;149.67;;
3074;SDS011;1548;51.716;8.748;2022-11-15T15:42:47;318.87;;;163.60;;
3074;SDS011;1548;51.716;8.748;2022-11-15T15:45:13;316.57;;;170.80;;
3074;SDS011;1548;51.716;8.748;2022-11-15T15:47:41;311.20;;;166.80;;
3074;SDS011;1548;51.716;8.748;2022-11-15T15:52:53;296.37;;;163.30;;
3074;SDS011;1548;51.716;8.748;2022-11-15T15:55:23;301.30;;;159.70;;
3074;SDS011;1548;51.716;8.748;2022-11-15T15:57:49;307.90;;;168.97;;
3074;SDS011;1548;51.716;8.748;2022-11-15T16:00:15;318.63;;;156.33;;
3074;SDS011;1548;51.716;8.748;2022-11-15T16:02:42;323.03;;;164.70;;
3074;SDS011;1548;51.716;8.748;2022-11-15T16:05:08;302.13;;;167.63;;
3074;SDS011;1548;51.716;8.748;2022-11-15T16:07:34;292.97;;;170.00;;
3074;SDS011;1548;51.716;8.748;2022-11-15T16:10:00;283.67;;;166.90;;
3074;SDS011;1548;51.716;8.748;2022-11-15T16:12:30;274.13;;;157.53;;
3074;SDS011;1548;51.716;8.748;2022-11-15T16:14:57;305.33;;;171.80;;
3074;SDS011;1548;51.716;8.748;2022-11-15T16:17:25;305.47;;;165.07;;
3074;SDS011;1548;51.716;8.748;2022-11-15T16:19:52;336.57;;;167.73;;
3074;SDS011;1548;51.716;8.748;2022-11-15T16:22:17;314.07;;;168.30;;
3074;SDS011;1548;51.716;8.748;2022-11-15T16:24:43;340.20;;;170.77;;
3074;SDS011;1548;51.716;8.748;2022-11-15T16:27:13;336.93;;;167.10;;
3074;SDS011;1548;51.716;8.748;2022-11-15T16:29:43;351.37;;;172.20;;
3074;SDS011;1548;51.716;8.748;2022-11-15T16:32:09;337.53;;;163.97;;
3074;SDS011;1548;51.716;8.748;2022-11-15T16:34:35;313.80;;;144.20;;
3074;SDS011;1548;51.716;8.748;2022-11-15T16:37:00;362.63;;;166.60;;
3074;SDS011;1548;51.716;8.748;2022-11-15T16:39:26;360.03;;;163.17;;
3074;SDS011;1548;51.716;8.748;2022-11-15T16:41:54;353.37;;;165.20;;
3074;SDS011;1548;51.716;8.748;2022-11-15T16:44:21;310.83;;;160.43;;
3074;SDS011;1548;51.716;8.748;2022-11-15T16:46:48;313.53;;;171.20;;
3074;SDS011;1548;51.716;8.748;2022-11-15T16:49:15;319.57;;;165.57;;
3074;SDS011;1548;51.716;8.748;2022-11-15T16:51:44;339.77;;;174.17;;